createdAt,value
2022-12-09T00:03:00.618Z,96053.78
2022-12-09T00:06:16.458Z,96056.59
2022-12-09T00:09:18.163Z,96054.00
2022-12-09T00:12:19.798Z,96052.13
2022-12-09T00:15:21.375Z,96057.56
2022-12-09T00:18:22.933Z,96052.28
2022-12-09T00:21:29.785Z,96053.84
2022-12-09T00:24:31.379Z,96053.03
2022-12-09T00:27:32.846Z,96040.44
2022-12-09T00:30:34.612Z,96034.50
2022-12-09T00:33:36.571Z,96023.69
2022-12-09T00:36:38.282Z,96021.94
2022-12-09T00:39:40.120Z,96019.16
2022-12-09T00:42:41.931Z,96021.97
2022-12-09T00:45:45.380Z,96019.50
2022-12-09T00:48:47.621Z,96025.03
2022-12-09T00:51:49.109Z,96015.25
2022-12-09T00:54:50.854Z,96012.22
2022-12-09T00:57:52.569Z,96008.53
2022-12-09T01:00:54.295Z,96014.69
2022-12-09T01:03:56.535Z,96008.34
2022-12-09T01:06:58.635Z,96006.47
2022-12-09T01:10:02.548Z,96002.91
2022-12-09T01:13:04.570Z,95981.69
2022-12-09T01:16:15.307Z,95989.56
2022-12-09T01:19:17.206Z,95982.50
2022-12-09T01:22:19.004Z,95992.72
2022-12-09T01:25:20.578Z,95995.31
2022-12-09T01:28:22.094Z,95992.97
2022-12-09T01:31:25.128Z,95999.41
2022-12-09T01:34:26.851Z,95994.91
2022-12-09T01:37:28.548Z,95993.25
2022-12-09T01:40:30.570Z,95983.19
2022-12-09T01:43:32.404Z,95980.41
2022-12-09T01:46:34.066Z,95976.66
2022-12-09T01:49:42.457Z,95973.78
2022-12-09T01:52:46.649Z,95963.53
2022-12-09T01:55:50.004Z,95957.69
2022-12-09T01:58:54.443Z,95953.78
2022-12-09T02:02:00.170Z,95941.81
2022-12-09T02:05:02.832Z,95941.97
2022-12-09T02:08:07.763Z,95940.38
2022-12-09T02:11:17.367Z,95939.97
2022-12-09T02:14:31.652Z,95934.56
2022-12-09T02:17:40.369Z,95926.91
2022-12-09T02:20:54.133Z,95915.34
2022-12-09T02:24:06.129Z,95921.50
2022-12-09T02:27:17.919Z,95927.53
2022-12-09T02:30:23.283Z,95920.88
2022-12-09T02:33:53.773Z,95923.19
2022-12-09T02:37:13.857Z,95919.38
2022-12-09T02:40:31.349Z,95907.66
2022-12-09T02:43:48.067Z,95908.59
2022-12-09T02:46:53.258Z,95911.75
2022-12-09T02:50:06.057Z,95897.28
2022-12-09T02:53:12.979Z,95903.28
2022-12-09T02:56:15.689Z,95906.28
2022-12-09T02:59:17.575Z,95891.28
2022-12-09T03:02:30.291Z,95885.16
2022-12-09T03:06:14.473Z,95877.94
2022-12-09T03:09:27.510Z,95874.91
2022-12-09T03:12:33.182Z,95875.59
2022-12-09T03:15:40.901Z,95867.81
2022-12-09T03:18:47.811Z,95868.09
2022-12-09T03:21:53.530Z,95860.72
2022-12-09T03:24:57.693Z,95859.06
2022-12-09T03:28:03.982Z,95859.91
2022-12-09T03:31:10.625Z,95864.81
2022-12-09T03:34:16.333Z,95864.53
2022-12-09T03:37:20.210Z,95852.50
2022-12-09T03:40:25.787Z,95853.34
2022-12-09T03:43:33.426Z,95847.31
2022-12-09T03:46:35.363Z,95840.22
2022-12-09T03:49:39.581Z,95841.88
2022-12-09T03:52:50.122Z,95834.50
2022-12-09T03:55:51.603Z,95838.72
2022-12-09T03:58:55.990Z,95828.75
2022-12-09T04:01:58.091Z,95817.09
2022-12-09T04:05:00.005Z,95812.75
2022-12-09T04:08:01.601Z,95812.22
2022-12-09T04:11:03.199Z,95801.41
2022-12-09T04:14:04.913Z,95806.19
2022-12-09T04:17:06.640Z,95803.47
2022-12-09T04:20:09.258Z,95789.81
2022-12-09T04:23:11.278Z,95788.31
2022-12-09T04:26:16.319Z,95791.28
2022-12-09T04:29:18.359Z,95780.63
2022-12-09T04:32:20.410Z,95778.72
2022-12-09T04:35:23.096Z,95780.34
2022-12-09T04:38:24.656Z,95778.94
2022-12-09T04:41:26.728Z,95772.66
2022-12-09T04:44:28.517Z,95774.28
2022-12-09T04:47:30.164Z,95773.47
2022-12-09T04:50:31.700Z,95778.41
2022-12-09T04:53:33.377Z,95769.41
2022-12-09T04:56:34.942Z,95775.81
2022-12-09T04:59:36.430Z,95772.41
2022-12-09T05:02:38.216Z,95778.41
2022-12-09T05:05:40.925Z,95774.59
2022-12-09T05:08:43.382Z,95776.06
2022-12-09T05:11:44.924Z,95780.06
2022-12-09T05:14:46.460Z,95777.84
2022-12-09T05:17:48.383Z,95782.31
2022-12-09T05:20:50.278Z,95781.78
2022-12-09T05:23:51.850Z,95781.00
2022-12-09T05:26:54.284Z,95783.06
2022-12-09T05:29:55.954Z,95784.56
2022-12-09T05:32:57.681Z,95781.84
2022-12-09T05:36:00.054Z,95782.91
2022-12-09T05:39:01.702Z,95782.59
2022-12-09T05:42:03.595Z,95775.34
2022-12-09T05:45:05.889Z,95770.41
2022-12-09T05:48:07.715Z,95772.72
2022-12-09T05:51:27.064Z,95768.75
2022-12-09T05:54:28.972Z,95765.22
2022-12-09T05:57:31.064Z,95765.34
2022-12-09T06:00:33.002Z,95772.56
2022-12-09T06:03:36.315Z,95766.81
2022-12-09T06:06:38.810Z,95767.19
2022-12-09T06:09:41.101Z,95767.03
2022-12-09T06:12:43.061Z,95765.41
2022-12-09T06:15:45.337Z,95763.47
2022-12-09T06:18:48.579Z,95762.34
2022-12-09T06:21:50.645Z,95757.63
2022-12-09T06:24:56.927Z,95757.09
2022-12-09T06:28:11.943Z,95751.22
2022-12-09T06:31:14.044Z,95755.16
2022-12-09T06:34:16.530Z,95747.38
2022-12-09T06:37:18.292Z,95747.91
2022-12-09T06:40:22.136Z,95748.44
2022-12-09T06:43:24.138Z,95748.72
2022-12-09T06:46:27.212Z,95747.75
2022-12-09T06:49:29.325Z,95740.53
2022-12-09T06:52:31.116Z,95741.41
2022-12-09T06:55:32.943Z,95737.06
2022-12-09T06:58:35.010Z,95729.59
2022-12-09T07:01:38.097Z,95729.34
2022-12-09T07:04:40.501Z,95722.97
2022-12-09T07:07:42.624Z,95728.63
2022-12-09T07:10:48.156Z,95728.72
2022-12-09T07:13:53.533Z,95732.59
2022-12-09T07:16:55.321Z,95730.03
2022-12-09T07:20:01.531Z,95736.28
2022-12-09T07:23:06.588Z,95741.13
2022-12-09T07:26:08.824Z,95739.44
2022-12-09T07:29:10.584Z,95743.22
2022-12-09T07:32:12.395Z,95746.22
2022-12-09T07:35:14.592Z,95746.22
2022-12-09T07:38:18.251Z,95746.22
2022-12-09T07:41:20.263Z,95749.88
2022-12-09T07:44:22.887Z,95743.94
2022-12-09T07:47:24.831Z,95742.28
2022-12-09T07:50:26.814Z,95740.88
2022-12-09T07:53:29.175Z,95743.13
2022-12-09T07:56:31.007Z,95742.00
2022-12-09T07:59:32.965Z,95748.38
2022-12-09T08:02:34.829Z,95744.59
2022-12-09T08:05:47.010Z,95742.81
2022-12-09T08:08:49.316Z,95743.56
2022-12-09T08:11:51.122Z,95741.03
2022-12-09T08:14:53.550Z,95733.75
2022-12-09T08:17:55.305Z,95749.56
2022-12-09T08:20:57.477Z,95752.56
2022-12-09T08:24:01.714Z,95741.69
2022-12-09T08:27:04.404Z,95741.91
2022-12-09T08:30:07.488Z,95734.50
2022-12-09T08:33:09.693Z,95733.72
2022-12-09T08:36:14.555Z,95729.66
2022-12-09T08:39:16.332Z,95728.81
2022-12-09T08:42:18.338Z,95727.09
2022-12-09T08:45:20.014Z,95729.09
2022-12-09T08:48:22.131Z,95719.47
2022-12-09T08:51:24.265Z,95727.97
2022-12-09T08:54:26.233Z,95732.72
2022-12-09T08:57:28.808Z,95722.97
2022-12-09T09:00:30.469Z,95728.97
2022-12-09T09:03:32.305Z,95729.91
2022-12-09T09:06:34.472Z,95719.97
2022-12-09T09:09:36.565Z,95720.78
2022-12-09T09:12:43.249Z,95734.00
2022-12-09T09:15:45.659Z,95731.78
2022-12-09T09:18:47.659Z,95733.28
2022-12-09T09:21:49.973Z,95733.44
2022-12-09T09:24:54.227Z,95736.34
2022-12-09T09:27:55.988Z,95746.69
2022-12-09T09:31:03.393Z,95752.50
2022-12-09T09:34:05.653Z,95755.41
2022-12-09T09:37:07.573Z,95748.56
2022-12-09T09:40:10.706Z,95745.91
2022-12-09T09:43:17.468Z,95748.09
2022-12-09T09:46:31.048Z,95739.97
2022-12-09T09:49:48.500Z,95734.81
2022-12-09T09:52:53.219Z,95749.16
2022-12-09T09:56:19.853Z,95748.38
2022-12-09T09:59:34.124Z,95736.09
2022-12-09T10:03:01.250Z,95730.09
2022-12-09T10:06:22.895Z,95716.50
2022-12-09T10:09:44.378Z,95711.84
2022-12-09T10:13:11.037Z,95705.56
2022-12-09T10:16:21.229Z,95710.59
2022-12-09T10:19:26.796Z,95710.06
2022-12-09T10:22:32.165Z,95696.72
2022-12-09T10:25:37.270Z,95688.28
2022-12-09T10:28:45.058Z,95682.44
2022-12-09T10:31:46.720Z,95676.38
2022-12-09T10:34:48.865Z,95669.66
2022-12-09T10:37:53.515Z,95680.41
2022-12-09T10:41:01.339Z,95677.63
2022-12-09T10:44:21.893Z,95680.25
2022-12-09T10:47:29.417Z,95678.44
2022-12-09T10:50:35.906Z,95685.25
2022-12-09T10:53:46.049Z,95684.84
2022-12-09T10:57:27.492Z,95682.31
2022-12-09T11:00:34.618Z,95674.63
2022-12-09T11:03:48.978Z,95674.44
2022-12-09T11:06:58.713Z,95674.28
2022-12-09T11:10:01.259Z,95675.34
2022-12-09T11:13:07.412Z,95665.41
2022-12-09T11:16:11.655Z,95664.28
2022-12-09T11:19:14.328Z,95660.22
2022-12-09T11:22:41.053Z,95654.19
2022-12-09T11:26:07.730Z,95653.69
2022-12-09T11:29:22.170Z,95648.50
2022-12-09T11:32:23.914Z,95642.94
2022-12-09T11:35:45.853Z,95643.63
2022-12-09T11:38:49.940Z,95633.84
2022-12-09T11:42:16.976Z,95636.81
2022-12-09T11:45:27.416Z,95648.88
2022-12-09T11:48:37.524Z,95652.47
2022-12-09T11:52:07.018Z,95650.66
2022-12-09T11:55:23.542Z,95647.75
2022-12-09T11:58:57.949Z,95645.28
2022-12-09T12:02:26.302Z,95647.88
2022-12-09T12:05:43.080Z,95648.50
2022-12-09T12:08:50.900Z,95658.25
2022-12-09T12:12:05.043Z,95652.25
2022-12-09T12:15:43.374Z,95654.66
2022-12-09T12:18:53.423Z,95650.59
2022-12-09T12:21:57.774Z,95653.53
2022-12-09T12:24:59.194Z,95667.97
2022-12-09T12:28:22.020Z,95658.16
2022-12-09T12:32:05.941Z,95653.50
2022-12-09T12:35:28.458Z,95660.00
2022-12-09T12:38:54.192Z,95657.91
2022-12-09T12:42:12.177Z,95647.16
2022-12-09T12:45:39.457Z,95646.38
2022-12-09T12:49:05.329Z,95654.72
2022-12-09T12:52:20.995Z,95657.31
2022-12-09T12:55:53.582Z,95655.09
2022-12-09T12:59:04.892Z,95653.59
2022-12-09T13:02:31.256Z,95648.53
2022-12-09T13:05:37.615Z,95650.81
2022-12-09T13:09:03.251Z,95659.41
2022-12-09T13:12:13.142Z,95663.00
2022-12-09T13:15:17.552Z,95652.75
2022-12-09T13:18:27.337Z,95652.47
2022-12-09T13:21:28.956Z,95651.28
2022-12-09T13:24:33.137Z,95656.53
2022-12-09T13:27:40.673Z,95655.53
2022-12-09T13:30:55.617Z,95652.78
2022-12-09T13:34:07.222Z,95648.72
2022-12-09T13:37:31.671Z,95645.97
2022-12-09T13:40:36.796Z,95647.25
2022-12-09T13:43:40.358Z,95650.66
2022-12-09T13:46:42.969Z,95660.78
2022-12-09T13:49:58.306Z,95656.69
2022-12-09T13:53:02.823Z,95664.53
2022-12-09T13:56:16.666Z,95669.41
2022-12-09T13:59:50.613Z,95664.81
2022-12-09T14:03:00.001Z,95673.97
2022-12-09T14:06:06.612Z,95667.25
2022-12-09T14:09:35.526Z,95669.72
2022-12-09T14:12:44.269Z,95676.06
2022-12-09T14:15:48.032Z,95676.09
2022-12-09T14:18:49.897Z,95677.53
2022-12-09T14:22:20.112Z,95678.63
2022-12-09T14:25:28.266Z,95685.50
2022-12-09T14:28:40.665Z,95688.44
2022-12-09T14:31:51.048Z,95683.53
2022-12-09T14:35:03.007Z,95695.38
2022-12-09T14:38:19.019Z,95704.63
2022-12-09T14:41:48.111Z,95707.81
2022-12-09T14:45:14.612Z,95706.50
2022-12-09T14:48:24.851Z,95707.31
2022-12-09T14:51:40.260Z,95708.56
2022-12-09T14:54:45.798Z,95713.81
2022-12-09T14:57:48.119Z,95719.38
2022-12-09T15:01:00.259Z,95728.94
2022-12-09T15:04:01.867Z,95731.53
2022-12-09T15:07:15.892Z,95724.22
2022-12-09T15:10:36.434Z,95723.56
2022-12-09T15:13:40.942Z,95726.94
2022-12-09T15:16:49.101Z,95725.22
2022-12-09T15:20:00.222Z,95731.13
2022-12-09T15:23:20.120Z,95726.66
2022-12-09T15:26:32.464Z,95728.63
2022-12-09T15:29:34.307Z,95730.13
2022-12-09T15:32:38.718Z,95738.88
2022-12-09T15:35:43.534Z,95728.66
2022-12-09T15:38:57.045Z,95741.94
2022-12-09T15:42:07.111Z,95725.09
2022-12-09T15:45:12.870Z,95731.66
2022-12-09T15:48:19.776Z,95735.75
2022-12-09T15:51:23.107Z,95743.13
2022-12-09T15:54:29.602Z,95750.41
2022-12-09T15:57:31.255Z,95750.59
2022-12-09T16:00:38.579Z,95748.50
2022-12-09T16:03:40.250Z,95763.22
2022-12-09T16:06:41.962Z,95752.31
2022-12-09T16:10:08.753Z,95756.31
2022-12-09T16:13:16.068Z,95759.84
2022-12-09T16:16:29.654Z,95764.13
2022-12-09T16:19:36.595Z,95764.84
2022-12-09T16:22:41.103Z,95759.50
2022-12-09T16:25:47.880Z,95765.31
2022-12-09T16:29:02.689Z,95774.72
2022-12-09T16:32:19.118Z,95764.53
2022-12-09T16:35:43.088Z,95771.16
2022-12-09T16:39:05.601Z,95763.00
2022-12-09T16:42:29.587Z,95766.31
2022-12-09T16:45:37.195Z,95769.56
2022-12-09T16:48:38.843Z,95777.31
2022-12-09T16:51:40.525Z,95767.88
2022-12-09T16:54:46.558Z,95769.31
2022-12-09T16:57:49.219Z,95773.09
2022-12-09T17:00:51.045Z,95760.59
2022-12-09T17:03:59.214Z,95776.34
2022-12-09T17:07:00.736Z,95782.50
2022-12-09T17:10:02.398Z,95780.06
2022-12-09T17:13:03.928Z,95768.63
2022-12-09T17:16:06.938Z,95780.38
2022-12-09T17:19:08.702Z,95774.69
2022-12-09T17:22:11.170Z,95774.28
2022-12-09T17:25:12.863Z,95774.38
2022-12-09T17:28:14.395Z,95773.53
2022-12-09T17:31:19.194Z,95770.50
2022-12-09T17:34:20.854Z,95771.97
2022-12-09T17:37:22.353Z,95765.59
2022-12-09T17:40:23.855Z,95770.94
2022-12-09T17:43:25.370Z,95777.94
2022-12-09T17:46:27.340Z,95781.53
2022-12-09T17:49:29.239Z,95783.81
2022-12-09T17:52:31.375Z,95792.44
2022-12-09T17:55:37.926Z,95795.03
2022-12-09T17:58:40.052Z,95800.22
2022-12-09T18:01:43.883Z,95812.13
2022-12-09T18:04:45.559Z,95806.41
2022-12-09T18:07:47.188Z,95810.94
2022-12-09T18:10:48.801Z,95812.63
2022-12-09T18:13:50.550Z,95813.91
2022-12-09T18:16:52.144Z,95804.97
2022-12-09T18:19:54.547Z,95807.44
2022-12-09T18:22:56.068Z,95811.88
2022-12-09T18:25:58.758Z,95809.06
2022-12-09T18:29:00.338Z,95815.81
2022-12-09T18:32:02.139Z,95822.03
2022-12-09T18:35:04.144Z,95830.00
2022-12-09T18:38:12.404Z,95836.56
2022-12-09T18:41:22.431Z,95837.22
2022-12-09T18:44:23.966Z,95841.28
2022-12-09T18:47:25.501Z,95839.19
2022-12-09T18:50:27.011Z,95830.06
2022-12-09T18:53:28.643Z,95827.72
2022-12-09T18:56:31.297Z,95829.41
2022-12-09T18:59:33.072Z,95834.53
2022-12-09T19:02:34.606Z,95842.63
2022-12-09T19:05:40.946Z,95845.47
2022-12-09T19:08:42.614Z,95845.84
2022-12-09T19:11:46.091Z,95852.50
2022-12-09T19:14:47.634Z,95853.34
2022-12-09T19:17:49.202Z,95854.97
2022-12-09T19:20:51.201Z,95853.69
2022-12-09T19:23:53.663Z,95852.59
2022-12-09T19:26:57.635Z,95850.94
2022-12-09T19:29:59.174Z,95851.31
2022-12-09T19:33:00.699Z,95854.56
2022-12-09T19:36:05.495Z,95845.44
2022-12-09T19:39:08.844Z,95858.16
2022-12-09T19:42:11.610Z,95863.50
2022-12-09T19:45:14.391Z,95860.53
2022-12-09T19:48:16.695Z,95860.41
2022-12-09T19:51:19.482Z,95862.38
2022-12-09T19:54:26.741Z,95856.38
2022-12-09T19:57:29.927Z,95853.25
2022-12-09T20:00:32.924Z,95858.59
2022-12-09T20:03:42.499Z,95858.88
2022-12-09T20:06:45.113Z,95852.06
2022-12-09T20:09:47.547Z,95848.94
2022-12-09T20:12:49.058Z,95854.81
2022-12-09T20:15:50.616Z,95852.44
2022-12-09T20:18:55.179Z,95856.13
2022-12-09T20:21:56.877Z,95849.75
2022-12-09T20:24:58.398Z,95847.97
2022-12-09T20:28:00.522Z,95864.31
2022-12-09T20:31:08.238Z,95859.34
2022-12-09T20:34:15.952Z,95863.03
2022-12-09T20:37:17.589Z,95853.63
2022-12-09T20:40:19.320Z,95850.03
2022-12-09T20:43:21.102Z,95857.19
2022-12-09T20:46:32.423Z,95865.06
2022-12-09T20:49:34.320Z,95870.94
2022-12-09T20:52:36.063Z,95876.38
2022-12-09T20:55:37.611Z,95876.72
2022-12-09T20:58:40.495Z,95881.63
2022-12-09T21:01:43.694Z,95887.50
2022-12-09T21:04:46.179Z,95891.38
2022-12-09T21:07:47.767Z,95886.78
2022-12-09T21:10:49.537Z,95894.28
2022-12-09T21:13:53.527Z,95899.84
2022-12-09T21:16:55.436Z,95892.56
2022-12-09T21:19:57.029Z,95903.78
2022-12-09T21:23:25.070Z,95891.09
2022-12-09T21:26:22.397Z,95898.00
2022-12-09T21:29:29.855Z,95895.56
2022-12-09T21:32:35.549Z,95901.88
2022-12-09T21:35:37.736Z,95895.91
2022-12-09T21:38:39.764Z,95892.41
2022-12-09T21:41:42.908Z,95896.84
2022-12-09T21:44:44.788Z,95895.38
2022-12-09T21:47:46.419Z,95888.25
2022-12-09T21:50:54.640Z,95887.72
2022-12-09T21:53:56.300Z,95885.88
2022-12-09T21:56:58.028Z,95883.09
2022-12-09T21:59:59.683Z,95882.63
2022-12-09T22:03:01.305Z,95873.91
2022-12-09T22:06:03.582Z,95876.59
2022-12-09T22:09:07.367Z,95879.13
2022-12-09T22:12:09.085Z,95879.75
2022-12-09T22:15:10.908Z,95881.97
2022-12-09T22:18:12.513Z,95885.75
2022-12-09T22:21:26.003Z,95885.81
2022-12-09T22:24:28.366Z,95883.34
2022-12-09T22:27:29.948Z,95879.78
2022-12-09T22:30:31.628Z,95878.53
2022-12-09T22:33:33.286Z,95878.81
2022-12-09T22:36:36.873Z,95878.16
2022-12-09T22:39:38.478Z,95876.66
2022-12-09T22:42:39.971Z,95883.75
2022-12-09T22:45:41.529Z,95884.41
2022-12-09T22:48:44.117Z,95893.03
2022-12-09T22:51:46.468Z,95892.28
2022-12-09T22:54:47.991Z,95893.47
2022-12-09T22:57:50.072Z,95906.72
2022-12-09T23:00:51.685Z,95907.50
2022-12-09T23:03:57.522Z,95906.16
2022-12-09T23:06:59.115Z,95910.84
2022-12-09T23:10:01.091Z,95907.34
2022-12-09T23:13:02.656Z,95911.84
2022-12-09T23:16:05.511Z,95911.09
2022-12-09T23:19:07.133Z,95913.25
2022-12-09T23:22:08.682Z,95912.16
2022-12-09T23:25:10.707Z,95908.88
2022-12-09T23:28:12.251Z,95904.69
2022-12-09T23:31:15.960Z,95902.31
2022-12-09T23:34:17.944Z,95907.09
2022-12-09T23:37:19.450Z,95913.72
2022-12-09T23:40:21.148Z,95910.50
2022-12-09T23:43:22.671Z,95909.31
2022-12-09T23:46:27.137Z,95913.84
2022-12-09T23:49:28.627Z,95912.66
2022-12-09T23:52:30.237Z,95906.03
2022-12-09T23:55:31.837Z,95908.78
2022-12-09T23:58:34.027Z,95901.75
